sensor_id;sensor_type;location;lat;lon;timestamp;pressure;altitude;pressure_sealevel;temperature;humidity
8705;BME280;4389;41.932;25.904;2023-08-17T00:00:50;-16635.19;;;21.31;89.99
8705;BME280;4389;41.932;25.904;2023-08-17T00:03:17;-16633.06;;;21.23;90.29
8705;BME280;4389;41.932;25.904;2023-08-17T00:05:44;-16634.00;;;21.27;90.04
8705;BME280;4389;41.932;25.904;2023-08-17T00:08:11;-16633.84;;;21.26;89.96
8705;BME280;4389;41.932;25.904;2023-08-17T00:10:38;-16627.50;;;21.02;90.57
8705;BME280;4389;41.932;25.904;2023-08-17T00:13:05;-16627.13;;;21.01;91.13
8705;BME280;4389;41.932;25.904;2023-08-17T00:15:32;-16627.66;;;21.03;91.17
8705;BME280;4389;41.932;25.904;2023-08-17T00:18:00;-16625.94;;;20.96;91.35
8705;BME280;4389;41.932;25.904;2023-08-17T00:20:27;-16625.94;;;20.96;91.52
8705;BME280;4389;41.932;25.904;2023-08-17T00:22:54;-16625.13;;;20.93;91.70
8705;BME280;4389;41.932;25.904;2023-08-17T00:25:21;-16626.44;;;20.98;91.91
8705;BME280;4389;41.932;25.904;2023-08-17T00:27:47;-16628.31;;;21.05;91.75
8705;BME280;4389;41.932;25.904;2023-08-17T00:30:14;-16626.44;;;20.98;91.58
8705;BME280;4389;41.932;25.904;2023-08-17T00:32:41;-16628.31;;;21.05;91.01
8705;BME280;4389;41.932;25.904;2023-08-17T00:35:09;-16630.16;;;21.12;91.14
8705;BME280;4389;41.932;25.904;2023-08-17T00:37:36;-16630.41;;;21.13;90.81
8705;BME280;4389;41.932;25.904;2023-08-17T00:40:03;-16628.84;;;21.07;91.52
8705;BME280;4389;41.932;25.904;2023-08-17T00:42:31;-16629.88;;;21.11;91.38
8705;BME280;4389;41.932;25.904;2023-08-17T00:44:58;-16628.56;;;21.06;91.25
8705;BME280;4389;41.932;25.904;2023-08-17T00:47:27;-16625.94;;;20.96;90.79
8705;BME280;4389;41.932;25.904;2023-08-17T00:49:55;-16621.94;;;20.81;90.77
8705;BME280;4389;41.932;25.904;2023-08-17T00:52:24;-16621.44;;;20.79;90.85
8705;BME280;4389;41.932;25.904;2023-08-17T00:54:51;-16617.72;;;20.65;91.11
8705;BME280;4389;41.932;25.904;2023-08-17T00:57:18;-16616.78;;;20.62;91.65
8705;BME280;4389;41.932;25.904;2023-08-17T00:59:46;-16615.88;;;20.58;92.12
8705;BME280;4389;41.932;25.904;2023-08-17T01:02:13;-16614.03;;;20.51;92.79
8705;BME280;4389;41.932;25.904;2023-08-17T01:04:40;-16607.28;;;20.26;93.86
8705;BME280;4389;41.932;25.904;2023-08-17T01:07:07;-16609.00;;;20.32;94.65
8705;BME280;4389;41.932;25.904;2023-08-17T01:09:35;-16612.44;;;20.45;93.98
8705;BME280;4389;41.932;25.904;2023-08-17T01:12:08;-16616.41;;;20.60;93.21
8705;BME280;4389;41.932;25.904;2023-08-17T01:14:48;-16618.50;;;20.68;92.70
8705;BME280;4389;41.932;25.904;2023-08-17T01:17:19;-16613.22;;;20.48;93.22
8705;BME280;4389;41.932;25.904;2023-08-17T01:19:49;-16610.84;;;20.39;93.49
8705;BME280;4389;41.932;25.904;2023-08-17T01:22:17;-16611.09;;;20.40;93.31
8705;BME280;4389;41.932;25.904;2023-08-17T01:24:49;-16609.25;;;20.33;93.38
8705;BME280;4389;41.932;25.904;2023-08-17T01:27:16;-16606.47;;;20.23;93.69
8705;BME280;4389;41.932;25.904;2023-08-17T01:29:42;-16604.75;;;20.16;93.92
8705;BME280;4389;41.932;25.904;2023-08-17T01:32:12;-16601.97;;;20.06;94.48
8705;BME280;4389;41.932;25.904;2023-08-17T01:34:46;-16600.66;;;20.01;94.78
8705;BME280;4389;41.932;25.904;2023-08-17T01:37:15;-16603.69;;;20.12;94.76
8705;BME280;4389;41.932;25.904;2023-08-17T01:39:49;-16609.53;;;20.34;94.04
8705;BME280;4389;41.932;25.904;2023-08-17T01:42:18;-16609.78;;;20.35;93.34
8705;BME280;4389;41.932;25.904;2023-08-17T01:44:46;-16610.59;;;20.38;92.84
8705;BME280;4389;41.932;25.904;2023-08-17T01:47:13;-16611.66;;;20.42;92.21
8705;BME280;4389;41.932;25.904;2023-08-17T01:49:40;-16612.97;;;20.47;91.91
8705;BME280;4389;41.932;25.904;2023-08-17T01:52:07;-16609.25;;;20.33;92.08
8705;BME280;4389;41.932;25.904;2023-08-17T01:54:34;-16607.94;;;20.28;92.30
8705;BME280;4389;41.932;25.904;2023-08-17T01:57:02;-16608.47;;;20.30;92.43
8705;BME280;4389;41.932;25.904;2023-08-17T01:59:29;-16608.06;;;20.29;92.54
8705;BME280;4389;41.932;25.904;2023-08-17T02:01:56;-16603.97;;;20.13;92.78
8705;BME280;4389;41.932;25.904;2023-08-17T02:04:24;-16600.38;;;20.00;93.83
8705;BME280;4389;41.932;25.904;2023-08-17T02:06:51;-16602.91;;;20.09;93.64
8705;BME280;4389;41.932;25.904;2023-08-17T02:09:17;-16605.44;;;20.19;92.65
8705;BME280;4389;41.932;25.904;2023-08-17T02:11:44;-16603.44;;;20.11;93.09
8705;BME280;4389;41.932;25.904;2023-08-17T02:14:12;-16605.56;;;20.19;92.54
8705;BME280;4389;41.932;25.904;2023-08-17T02:16:39;-16603.56;;;20.12;92.28
8705;BME280;4389;41.932;25.904;2023-08-17T02:19:06;-16602.13;;;20.06;92.85
8705;BME280;4389;41.932;25.904;2023-08-17T02:21:33;-16599.47;;;19.96;93.03
8705;BME280;4389;41.932;25.904;2023-08-17T02:24:00;-16601.59;;;20.04;93.09
8705;BME280;4389;41.932;25.904;2023-08-17T02:26:27;-16596.41;;;19.85;93.51
8705;BME280;4389;41.932;25.904;2023-08-17T02:28:53;-16595.22;;;19.80;94.18
8705;BME280;4389;41.932;25.904;2023-08-17T02:31:22;-16598.66;;;19.93;93.52
8705;BME280;4389;41.932;25.904;2023-08-17T02:33:49;-16597.34;;;19.88;93.21
8705;BME280;4389;41.932;25.904;2023-08-17T02:36:15;-16596.69;;;19.86;93.50
8705;BME280;4389;41.932;25.904;2023-08-17T02:38:42;-16596.03;;;19.83;93.41
8705;BME280;4389;41.932;25.904;2023-08-17T02:41:09;-16598.66;;;19.93;93.18
8705;BME280;4389;41.932;25.904;2023-08-17T02:43:36;-16597.34;;;19.88;93.10
8705;BME280;4389;41.932;25.904;2023-08-17T02:46:03;-16596.16;;;19.84;92.94
8705;BME280;4389;41.932;25.904;2023-08-17T02:48:33;-16600.25;;;19.99;92.73
8705;BME280;4389;41.932;25.904;2023-08-17T02:51:00;-16598.53;;;19.93;92.31
8705;BME280;4389;41.932;25.904;2023-08-17T02:53:27;-16602.91;;;20.09;91.29
8705;BME280;4389;41.932;25.904;2023-08-17T02:55:54;-16601.44;;;20.04;90.73
8705;BME280;4389;41.932;25.904;2023-08-17T02:58:21;-16599.47;;;19.96;91.08
8705;BME280;4389;41.932;25.904;2023-08-17T03:00:50;-16597.88;;;19.90;91.32
8705;BME280;4389;41.932;25.904;2023-08-17T03:03:17;-16601.31;;;20.03;90.87
8705;BME280;4389;41.932;25.904;2023-08-17T03:05:46;-16598.94;;;19.94;90.47
8705;BME280;4389;41.932;25.904;2023-08-17T03:08:13;-16600.78;;;20.01;90.31
8705;BME280;4389;41.932;25.904;2023-08-17T03:10:39;-16600.78;;;20.01;90.21
8705;BME280;4389;41.932;25.904;2023-08-17T03:13:06;-16600.66;;;20.01;90.47
8705;BME280;4389;41.932;25.904;2023-08-17T03:15:33;-16599.88;;;19.98;90.89
8705;BME280;4389;41.932;25.904;2023-08-17T03:18:05;-16599.19;;;19.95;90.98
8705;BME280;4389;41.932;25.904;2023-08-17T03:20:32;-16601.31;;;20.03;90.89
8705;BME280;4389;41.932;25.904;2023-08-17T03:23:00;-16601.19;;;20.03;90.36
8705;BME280;4389;41.932;25.904;2023-08-17T03:25:27;-16599.88;;;19.98;90.08
8705;BME280;4389;41.932;25.904;2023-08-17T03:27:53;-16600.25;;;19.99;90.23
8705;BME280;4389;41.932;25.904;2023-08-17T03:30:20;-16599.72;;;19.97;89.43
8705;BME280;4389;41.932;25.904;2023-08-17T03:32:47;-16593.91;;;19.75;89.95
8705;BME280;4389;41.932;25.904;2023-08-17T03:35:14;-16597.63;;;19.89;89.62
8705;BME280;4389;41.932;25.904;2023-08-17T03:37:41;-16596.56;;;19.85;89.66
8705;BME280;4389;41.932;25.904;2023-08-17T03:40:09;-16595.91;;;19.83;89.45
8705;BME280;4389;41.932;25.904;2023-08-17T03:42:36;-16590.72;;;19.63;89.62
8705;BME280;4389;41.932;25.904;2023-08-17T03:45:04;-16592.06;;;19.68;89.79
8705;BME280;4389;41.932;25.904;2023-08-17T03:47:31;-16590.19;;;19.61;90.37
8705;BME280;4389;41.932;25.904;2023-08-17T03:49:58;-16591.41;;;19.66;90.67
8705;BME280;4389;41.932;25.904;2023-08-17T03:52:25;-16593.91;;;19.75;90.14
8705;BME280;4389;41.932;25.904;2023-08-17T03:54:52;-16598.13;;;19.91;90.14
8705;BME280;4389;41.932;25.904;2023-08-17T03:57:20;-16607.13;;;20.25;88.71
8705;BME280;4389;41.932;25.904;2023-08-17T03:59:47;-16608.72;;;20.31;87.83
8705;BME280;4389;41.932;25.904;2023-08-17T04:02:13;-16622.75;;;20.84;86.14
8705;BME280;4389;41.932;25.904;2023-08-17T04:04:40;-16630.41;;;21.13;83.70
8705;BME280;4389;41.932;25.904;2023-08-17T04:07:07;-16634.25;;;21.28;82.78
8705;BME280;4389;41.932;25.904;2023-08-17T04:09:34;-16637.03;;;21.38;82.81
8705;BME280;4389;41.932;25.904;2023-08-17T04:12:01;-16635.72;;;21.33;82.72
8705;BME280;4389;41.932;25.904;2023-08-17T04:14:31;-16645.50;;;21.70;81.22
8705;BME280;4389;41.932;25.904;2023-08-17T04:16:58;-16648.41;;;21.81;80.13
8705;BME280;4389;41.932;25.904;2023-08-17T04:19:25;-16651.84;;;21.94;79.99
8705;BME280;4389;41.932;25.904;2023-08-17T04:21:52;-16657.66;;;22.16;78.65
8705;BME280;4389;41.932;25.904;2023-08-17T04:24:18;-16660.03;;;22.25;78.16
8705;BME280;4389;41.932;25.904;2023-08-17T04:26:45;-16657.13;;;22.14;78.15
8705;BME280;4389;41.932;25.904;2023-08-17T04:29:13;-16665.19;;;22.45;77.38
8705;BME280;4389;41.932;25.904;2023-08-17T04:31:41;-16666.09;;;22.48;77.31
8705;BME280;4389;41.932;25.904;2023-08-17T04:34:08;-16660.16;;;22.26;78.08
8705;BME280;4389;41.932;25.904;2023-08-17T04:36:34;-16679.31;;;22.98;75.89
8705;BME280;4389;41.932;25.904;2023-08-17T04:39:01;-16682.88;;;23.12;74.62
8705;BME280;4389;41.932;25.904;2023-08-17T04:41:30;-16692.00;;;23.46;72.92
8705;BME280;4389;41.932;25.904;2023-08-17T04:43:56;-16715.09;;;24.33;70.36
8705;BME280;4389;41.932;25.904;2023-08-17T04:46:23;-16734.22;;;25.06;67.21
8705;BME280;4389;41.932;25.904;2023-08-17T04:48:51;-16726.84;;;24.78;68.17
8705;BME280;4389;41.932;25.904;2023-08-17T04:51:18;-16700.19;;;23.77;72.62
8705;BME280;4389;41.932;25.904;2023-08-17T04:53:45;-16678.00;;;22.93;75.62
8705;BME280;4389;41.932;25.904;2023-08-17T04:56:12;-16669.94;;;22.63;77.76
8705;BME280;4389;41.932;25.904;2023-08-17T04:58:39;-16664.00;;;22.40;78.77
8705;BME280;4389;41.932;25.904;2023-08-17T05:01:06;-16666.09;;;22.48;78.29
8705;BME280;4389;41.932;25.904;2023-08-17T05:03:32;-16666.50;;;22.50;78.28
8705;BME280;4389;41.932;25.904;2023-08-17T05:06:01;-16664.78;;;22.43;78.51
8705;BME280;4389;41.932;25.904;2023-08-17T05:08:28;-16664.91;;;22.44;79.28
8705;BME280;4389;41.932;25.904;2023-08-17T05:10:55;-16666.91;;;22.51;78.96
8705;BME280;4389;41.932;25.904;2023-08-17T05:13:22;-16667.69;;;22.54;78.61
8705;BME280;4389;41.932;25.904;2023-08-17T05:15:49;-16672.31;;;22.72;77.81
8705;BME280;4389;41.932;25.904;2023-08-17T05:18:16;-16674.44;;;22.80;77.40
8705;BME280;4389;41.932;25.904;2023-08-17T05:20:43;-16673.50;;;22.76;77.08
8705;BME280;4389;41.932;25.904;2023-08-17T05:23:11;-16674.44;;;22.80;77.39
8705;BME280;4389;41.932;25.904;2023-08-17T05:25:38;-16676.16;;;22.86;77.52
8705;BME280;4389;41.932;25.904;2023-08-17T05:28:05;-16680.25;;;23.02;76.30
8705;BME280;4389;41.932;25.904;2023-08-17T05:30:32;-16683.94;;;23.16;75.82
8705;BME280;4389;41.932;25.904;2023-08-17T05:32:59;-16690.69;;;23.41;75.80
8705;BME280;4389;41.932;25.904;2023-08-17T05:35:26;-16695.44;;;23.59;75.00
8705;BME280;4389;41.932;25.904;2023-08-17T05:37:53;-16700.97;;;23.80;73.45
8705;BME280;4389;41.932;25.904;2023-08-17T05:40:21;-16704.16;;;23.92;73.32
8705;BME280;4389;41.932;25.904;2023-08-17T05:42:48;-16705.47;;;23.97;72.81
8705;BME280;4389;41.932;25.904;2023-08-17T05:45:14;-16708.63;;;24.09;72.40
8705;BME280;4389;41.932;25.904;2023-08-17T05:47:41;-16712.84;;;24.25;72.70
8705;BME280;4389;41.932;25.904;2023-08-17T05:50:09;-16716.16;;;24.38;72.64
8705;BME280;4389;41.932;25.904;2023-08-17T05:52:36;-16717.88;;;24.44;72.38
8705;BME280;4389;41.932;25.904;2023-08-17T05:55:03;-16725.50;;;24.73;72.02
8705;BME280;4389;41.932;25.904;2023-08-17T05:57:31;-16729.59;;;24.88;71.95
8705;BME280;4389;41.932;25.904;2023-08-17T05:59:58;-16732.63;;;25.00;70.22
8705;BME280;4389;41.932;25.904;2023-08-17T06:02:25;-16737.66;;;25.19;70.40
8705;BME280;4389;41.932;25.904;2023-08-17T06:04:51;-16745.31;;;25.48;68.74
8705;BME280;4389;41.932;25.904;2023-08-17T06:07:19;-16745.31;;;25.48;66.63
8705;BME280;4389;41.932;25.904;2023-08-17T06:09:46;-16752.16;;;25.74;67.20
8705;BME280;4389;41.932;25.904;2023-08-17T06:12:12;-16754.00;;;25.81;65.90
8705;BME280;4389;41.932;25.904;2023-08-17T06:14:41;-16761.13;;;26.08;66.35
8705;BME280;4389;41.932;25.904;2023-08-17T06:17:08;-16760.84;;;26.07;62.26
8705;BME280;4389;41.932;25.904;2023-08-17T06:19:34;-16764.94;;;26.22;60.91
8705;BME280;4389;41.932;25.904;2023-08-17T06:22:01;-16769.03;;;26.38;60.81
8705;BME280;4389;41.932;25.904;2023-08-17T06:24:28;-16772.72;;;26.52;60.16
8705;BME280;4389;41.932;25.904;2023-08-17T06:26:55;-16770.88;;;26.45;59.49
8705;BME280;4389;41.932;25.904;2023-08-17T06:29:22;-16778.25;;;26.73;58.85
8705;BME280;4389;41.932;25.904;2023-08-17T06:31:50;-16782.19;;;26.88;58.69
8705;BME280;4389;41.932;25.904;2023-08-17T06:34:17;-16787.19;;;27.07;58.10
8705;BME280;4389;41.932;25.904;2023-08-17T06:36:56;-16791.16;;;27.22;56.99
8705;BME280;4389;41.932;25.904;2023-08-17T06:39:23;-16791.41;;;27.23;56.82
8705;BME280;4389;41.932;25.904;2023-08-17T06:41:50;-16792.22;;;27.26;56.23
8705;BME280;4389;41.932;25.904;2023-08-17T06:44:17;-16796.41;;;27.42;56.71
8705;BME280;4389;41.932;25.904;2023-08-17T06:46:44;-16803.00;;;27.67;58.21
8705;BME280;4389;41.932;25.904;2023-08-17T06:49:12;-16802.22;;;27.64;57.10
8705;BME280;4389;41.932;25.904;2023-08-17T06:51:40;-16799.56;;;27.54;56.97
8705;BME280;4389;41.932;25.904;2023-08-17T06:54:07;-16802.88;;;27.66;57.10
8705;BME280;4389;41.932;25.904;2023-08-17T06:56:35;-16804.06;;;27.71;55.80
8705;BME280;4389;41.932;25.904;2023-08-17T06:59:02;-16805.63;;;27.77;56.16
8705;BME280;4389;41.932;25.904;2023-08-17T07:01:29;-16803.13;;;27.67;55.15
8705;BME280;4389;41.932;25.904;2023-08-17T07:03:56;-16810.09;;;27.94;55.34
8705;BME280;4389;41.932;25.904;2023-08-17T07:06:25;-16810.38;;;27.95;53.34
8705;BME280;4389;41.932;25.904;2023-08-17T07:08:51;-16810.38;;;27.95;54.52
8705;BME280;4389;41.932;25.904;2023-08-17T07:11:19;-16814.84;;;28.12;53.55
8705;BME280;4389;41.932;25.904;2023-08-17T07:13:46;-16816.28;;;28.17;53.58
8705;BME280;4389;41.932;25.904;2023-08-17T07:16:13;-16816.44;;;28.18;51.06
8705;BME280;4389;41.932;25.904;2023-08-17T07:18:40;-16820.38;;;28.33;52.08
8705;BME280;4389;41.932;25.904;2023-08-17T07:21:07;-16825.38;;;28.52;50.84
8705;BME280;4389;41.932;25.904;2023-08-17T07:23:35;-16826.69;;;28.57;50.46
8705;BME280;4389;41.932;25.904;2023-08-17T07:26:02;-16828.00;;;28.62;50.34
8705;BME280;4389;41.932;25.904;2023-08-17T07:28:29;-16823.53;;;28.45;50.09
8705;BME280;4389;41.932;25.904;2023-08-17T07:30:56;-16829.72;;;28.68;50.80
8705;BME280;4389;41.932;25.904;2023-08-17T07:33:23;-16832.47;;;28.79;49.46
8705;BME280;4389;41.932;25.904;2023-08-17T07:35:50;-16833.91;;;28.84;49.30
8705;BME280;4389;41.932;25.904;2023-08-17T07:38:18;-16839.19;;;29.04;48.72
8705;BME280;4389;41.932;25.904;2023-08-17T07:40:47;-16838.78;;;29.03;48.06
8705;BME280;4389;41.932;25.904;2023-08-17T07:43:14;-16838.41;;;29.01;47.67
8705;BME280;4389;41.932;25.904;2023-08-17T07:45:41;-16840.88;;;29.11;48.30
8705;BME280;4389;41.932;25.904;2023-08-17T07:48:08;-16848.50;;;29.40;47.23
8705;BME280;4389;41.932;25.904;2023-08-17T07:50:34;-16845.63;;;29.29;48.06
8705;BME280;4389;41.932;25.904;2023-08-17T07:53:02;-16846.69;;;29.33;47.45
8705;BME280;4389;41.932;25.904;2023-08-17T07:55:28;-16851.41;;;29.51;46.40
8705;BME280;4389;41.932;25.904;2023-08-17T07:57:57;-16855.63;;;29.67;47.03
8705;BME280;4389;41.932;25.904;2023-08-17T08:00:24;-16857.97;;;29.76;46.30
8705;BME280;4389;41.932;25.904;2023-08-17T08:02:50;-16858.75;;;29.79;46.09
8705;BME280;4389;41.932;25.904;2023-08-17T08:05:17;-16860.59;;;29.86;45.53
8705;BME280;4389;41.932;25.904;2023-08-17T08:07:44;-16861.53;;;29.89;45.02
8705;BME280;4389;41.932;25.904;2023-08-17T08:10:11;-16862.44;;;29.93;45.83
8705;BME280;4389;41.932;25.904;2023-08-17T08:12:38;-16871.13;;;30.26;45.72
8705;BME280;4389;41.932;25.904;2023-08-17T08:15:07;-16874.00;;;30.36;43.58
8705;BME280;4389;41.932;25.904;2023-08-17T08:17:34;-16869.81;;;30.21;44.85
8705;BME280;4389;41.932;25.904;2023-08-17T08:20:01;-16871.91;;;30.28;43.85
8705;BME280;4389;41.932;25.904;2023-08-17T08:22:28;-16871.66;;;30.27;43.96
8705;BME280;4389;41.932;25.904;2023-08-17T08:24:55;-16879.53;;;30.57;43.81
8705;BME280;4389;41.932;25.904;2023-08-17T08:27:21;-16882.03;;;30.67;43.48
8705;BME280;4389;41.932;25.904;2023-08-17T08:29:48;-16880.06;;;30.59;43.31
8705;BME280;4389;41.932;25.904;2023-08-17T08:32:17;-16888.44;;;30.91;43.61
8705;BME280;4389;41.932;25.904;2023-08-17T08:34:44;-16893.97;;;31.12;42.61
8705;BME280;4389;41.932;25.904;2023-08-17T08:37:11;-16888.97;;;30.93;43.53
8705;BME280;4389;41.932;25.904;2023-08-17T08:39:48;-16892.38;;;31.06;43.36
8705;BME280;4389;41.932;25.904;2023-08-17T08:42:16;-16894.22;;;31.13;42.67
8705;BME280;4389;41.932;25.904;2023-08-17T08:44:43;-16899.22;;;31.32;42.40
8705;BME280;4389;41.932;25.904;2023-08-17T08:47:11;-16900.78;;;31.38;41.95
8705;BME280;4389;41.932;25.904;2023-08-17T08:49:40;-16901.06;;;31.39;42.75
8705;BME280;4389;41.932;25.904;2023-08-17T08:52:13;-16901.97;;;31.43;42.45
8705;BME280;4389;41.932;25.904;2023-08-17T08:54:43;-16904.72;;;31.53;41.64
8705;BME280;4389;41.932;25.904;2023-08-17T08:57:13;-16905.50;;;31.56;40.84
8705;BME280;4389;41.932;25.904;2023-08-17T08:59:41;-16909.47;;;31.71;40.61
8705;BME280;4389;41.932;25.904;2023-08-17T09:02:14;-16913.78;;;31.88;39.93
8705;BME280;4389;41.932;25.904;2023-08-17T09:04:43;-16914.44;;;31.90;40.65
8705;BME280;4389;41.932;25.904;2023-08-17T09:07:11;-16916.53;;;31.98;39.94
8705;BME280;4389;41.932;25.904;2023-08-17T09:09:39;-16915.50;;;31.94;40.74
8705;BME280;4389;41.932;25.904;2023-08-17T09:12:07;-16920.72;;;32.14;40.40
8705;BME280;4389;41.932;25.904;2023-08-17T09:14:35;-16929.13;;;32.46;39.09
8705;BME280;4389;41.932;25.904;2023-08-17T09:17:03;-16931.88;;;32.57;38.18
8705;BME280;4389;41.932;25.904;2023-08-17T09:19:31;-16938.31;;;32.81;37.88
8705;BME280;4389;41.932;25.904;2023-08-17T09:22:00;-16935.81;;;32.72;38.52
8705;BME280;4389;41.932;25.904;2023-08-17T09:24:33;-16944.06;;;33.03;38.62
8705;BME280;4389;41.932;25.904;2023-08-17T09:27:00;-16948.41;;;33.20;37.25
8705;BME280;4389;41.932;25.904;2023-08-17T09:29:27;-16951.94;;;33.33;37.25
8705;BME280;4389;41.932;25.904;2023-08-17T09:31:57;-16946.44;;;33.12;37.08
8705;BME280;4389;41.932;25.904;2023-08-17T09:34:24;-16942.63;;;32.98;36.84
8705;BME280;4389;41.932;25.904;2023-08-17T09:36:51;-16943.41;;;33.01;38.14
8705;BME280;4389;41.932;25.904;2023-08-17T09:39:20;-16948.78;;;33.21;37.07
8705;BME280;4389;41.932;25.904;2023-08-17T09:41:46;-16948.78;;;33.21;36.38
8705;BME280;4389;41.932;25.904;2023-08-17T09:44:13;-16949.59;;;33.24;36.71
8705;BME280;4389;41.932;25.904;2023-08-17T09:46:43;-16947.75;;;33.17;37.58
8705;BME280;4389;41.932;25.904;2023-08-17T09:49:10;-16944.06;;;33.03;37.46
8705;BME280;4389;41.932;25.904;2023-08-17T09:51:37;-16940.81;;;32.91;37.48
8705;BME280;4389;41.932;25.904;2023-08-17T09:54:04;-16941.47;;;32.93;38.57
8705;BME280;4389;41.932;25.904;2023-08-17T09:56:33;-16945.78;;;33.10;37.63
8705;BME280;4389;41.932;25.904;2023-08-17T09:59:01;-16946.03;;;33.11;37.78
8705;BME280;4389;41.932;25.904;2023-08-17T10:01:29;-16950.50;;;33.28;37.91
8705;BME280;4389;41.932;25.904;2023-08-17T10:03:57;-16953.25;;;33.38;37.68
8705;BME280;4389;41.932;25.904;2023-08-17T10:06:26;-16954.81;;;33.44;37.12
8705;BME280;4389;41.932;25.904;2023-08-17T10:08:57;-16949.84;;;33.25;36.65
8705;BME280;4389;41.932;25.904;2023-08-17T10:11:26;-16946.81;;;33.14;37.59
8705;BME280;4389;41.932;25.904;2023-08-17T10:14:00;-16949.06;;;33.22;37.61
8705;BME280;4389;41.932;25.904;2023-08-17T10:16:37;-16952.19;;;33.34;38.06
8705;BME280;4389;41.932;25.904;2023-08-17T10:19:13;-16955.09;;;33.45;36.72
8705;BME280;4389;41.932;25.904;2023-08-17T10:21:48;-16953.00;;;33.37;37.43
8705;BME280;4389;41.932;25.904;2023-08-17T10:24:19;-16956.66;;;33.51;36.95
8705;BME280;4389;41.932;25.904;2023-08-17T10:26:46;-16956.66;;;33.51;37.52
8705;BME280;4389;41.932;25.904;2023-08-17T10:29:15;-16955.22;;;33.46;36.78
8705;BME280;4389;41.932;25.904;2023-08-17T10:31:44;-16955.59;;;33.47;36.47
8705;BME280;4389;41.932;25.904;2023-08-17T10:34:12;-16960.97;;;33.68;36.04
8705;BME280;4389;41.932;25.904;2023-08-17T10:36:42;-16962.81;;;33.75;35.78
8705;BME280;4389;41.932;25.904;2023-08-17T10:39:19;-16966.50;;;33.89;35.16
8705;BME280;4389;41.932;25.904;2023-08-17T10:41:47;-16968.19;;;33.95;36.54
8705;BME280;4389;41.932;25.904;2023-08-17T10:44:16;-16968.84;;;33.98;36.31
8705;BME280;4389;41.932;25.904;2023-08-17T10:46:44;-16967.41;;;33.92;36.91
8705;BME280;4389;41.932;25.904;2023-08-17T10:49:25;-16973.81;;;34.17;36.33
8705;BME280;4389;41.932;25.904;2023-08-17T10:52:03;-16976.56;;;34.27;34.69
8705;BME280;4389;41.932;25.904;2023-08-17T10:54:36;-16976.84;;;34.28;34.37
8705;BME280;4389;41.932;25.904;2023-08-17T10:57:24;-16980.22;;;34.41;35.00
8705;BME280;4389;41.932;25.904;2023-08-17T11:00:15;-16976.97;;;34.29;34.87
8705;BME280;4389;41.932;25.904;2023-08-17T11:02:51;-16970.53;;;34.04;34.76
8705;BME280;4389;41.932;25.904;2023-08-17T11:05:35;-16977.34;;;34.30;34.63
8705;BME280;4389;41.932;25.904;2023-08-17T11:08:03;-16978.66;;;34.35;34.32
8705;BME280;4389;41.932;25.904;2023-08-17T11:10:30;-16983.63;;;34.54;33.55
8705;BME280;4389;41.932;25.904;2023-08-17T11:12:59;-16983.63;;;34.54;34.13
8705;BME280;4389;41.932;25.904;2023-08-17T11:15:35;-16986.00;;;34.63;34.77
8705;BME280;4389;41.932;25.904;2023-08-17T11:18:06;-16986.78;;;34.66;33.61
8705;BME280;4389;41.932;25.904;2023-08-17T11:20:34;-16982.72;;;34.51;34.25
8705;BME280;4389;41.932;25.904;2023-08-17T11:23:01;-16979.97;;;34.40;32.87
8705;BME280;4389;41.932;25.904;2023-08-17T11:25:29;-16976.44;;;34.27;32.58
8705;BME280;4389;41.932;25.904;2023-08-17T11:27:55;-16971.06;;;34.06;32.92
8705;BME280;4389;41.932;25.904;2023-08-17T11:30:22;-16970.16;;;34.03;33.54
8705;BME280;4389;41.932;25.904;2023-08-17T11:32:53;-16973.41;;;34.15;33.55
8705;BME280;4389;41.932;25.904;2023-08-17T11:35:21;-16975.00;;;34.21;33.13
8705;BME280;4389;41.932;25.904;2023-08-17T11:37:48;-16979.44;;;34.38;32.02
8705;BME280;4389;41.932;25.904;2023-08-17T11:40:15;-16975.00;;;34.21;31.52
8705;BME280;4389;41.932;25.904;2023-08-17T11:42:43;-16973.69;;;34.16;32.33
8705;BME280;4389;41.932;25.904;2023-08-17T11:45:10;-16974.72;;;34.20;31.91
8705;BME280;4389;41.932;25.904;2023-08-17T11:47:38;-16978.53;;;34.35;31.85
8705;BME280;4389;41.932;25.904;2023-08-17T11:50:09;-16980.75;;;34.43;32.44
8705;BME280;4389;41.932;25.904;2023-08-17T11:52:37;-16984.41;;;34.57;31.09
8705;BME280;4389;41.932;25.904;2023-08-17T11:55:05;-16985.47;;;34.61;31.07
8705;BME280;4389;41.932;25.904;2023-08-17T11:57:32;-16988.09;;;34.71;30.75
8705;BME280;4389;41.932;25.904;2023-08-17T12:00:00;-16989.78;;;34.78;30.17
8705;BME280;4389;41.932;25.904;2023-08-17T12:02:28;-16992.00;;;34.86;31.07
8705;BME280;4389;41.932;25.904;2023-08-17T12:04:56;-16993.84;;;34.93;31.29
8705;BME280;4389;41.932;25.904;2023-08-17T12:07:24;-16996.59;;;35.04;31.34
8705;BME280;4389;41.932;25.904;2023-08-17T12:09:52;-16995.53;;;35.00;31.65
8705;BME280;4389;41.932;25.904;2023-08-17T12:12:21;-16990.72;;;34.81;31.67
8705;BME280;4389;41.932;25.904;2023-08-17T12:14:49;-16991.63;;;34.85;31.69
8705;BME280;4389;41.932;25.904;2023-08-17T12:17:16;-16998.81;;;35.12;31.90
8705;BME280;4389;41.932;25.904;2023-08-17T12:19:44;-17005.34;;;35.37;31.28
8705;BME280;4389;41.932;25.904;2023-08-17T12:22:13;-17008.50;;;35.49;31.65
8705;BME280;4389;41.932;25.904;2023-08-17T12:24:41;-17002.75;;;35.27;31.06
8705;BME280;4389;41.932;25.904;2023-08-17T12:27:09;-17002.22;;;35.25;32.02
8705;BME280;4389;41.932;25.904;2023-08-17T12:29:46;-16999.72;;;35.16;31.19
8705;BME280;4389;41.932;25.904;2023-08-17T12:32:14;-17002.47;;;35.26;31.16
8705;BME280;4389;41.932;25.904;2023-08-17T12:34:40;-16999.06;;;35.13;31.94
8705;BME280;4389;41.932;25.904;2023-08-17T12:37:08;-17002.75;;;35.27;31.49
8705;BME280;4389;41.932;25.904;2023-08-17T12:39:35;-17001.19;;;35.21;31.38
8705;BME280;4389;41.932;25.904;2023-08-17T12:42:04;-17004.19;;;35.33;31.54
8705;BME280;4389;41.932;25.904;2023-08-17T12:44:31;-17003.53;;;35.30;30.70
8705;BME280;4389;41.932;25.904;2023-08-17T12:46:58;-17002.75;;;35.27;30.74
8705;BME280;4389;41.932;25.904;2023-08-17T12:49:25;-17005.88;;;35.39;30.90
8705;BME280;4389;41.932;25.904;2023-08-17T12:51:52;-17006.66;;;35.42;31.36
8705;BME280;4389;41.932;25.904;2023-08-17T12:54:19;-17005.09;;;35.36;31.48
8705;BME280;4389;41.932;25.904;2023-08-17T12:56:46;-17003.78;;;35.31;32.08
8705;BME280;4389;41.932;25.904;2023-08-17T12:59:14;-17005.34;;;35.37;31.64
8705;BME280;4389;41.932;25.904;2023-08-17T13:01:41;-17001.19;;;35.21;31.67
8705;BME280;4389;41.932;25.904;2023-08-17T13:04:08;-16991.50;;;34.84;31.54